Time;durP1;ratioP1;P1;durP2;ratioP2;P2;SDS_P1;SDS_P2;PMS_P1;PMS_P2;Temp;Humidity;BMP_temperature;BMP_pressure;BME280_temperature;BME280_humidity;BME280_pressure;Samples;Min_cycle;Max_cycle;Signal;HPM_P1;HPM_P2
2023/08/15 00:02:20;;;;;;;6.60;2.90;;;;;;;;;;5011790;28;20053;-87
2023/08/15 00:04:45;;;;;;;3.33;2.28;;;;;;;;;;5027386;28;20037;-85
2023/08/15 00:07:12;;;;;;;3.50;2.67;;;;;;;;;;5010947;28;20030;-86
2023/08/15 00:09:38;;;;;;;4.10;2.95;;;;;;;;;;5026705;28;20025;-87
2023/08/15 00:12:04;;;;;;;5.10;3.50;;;;;;;;;;5010344;28;20042;-82
2023/08/15 00:14:30;;;;;;;4.70;3.40;;;;;;;;;;5010421;28;20038;-85
2023/08/15 00:16:56;;;;;;;5.35;3.30;;;;;;;;;;5026794;28;20025;-84
2023/08/15 00:19:24;;;;;;;7.93;3.40;;;;;;;;;;5010048;28;20036;-79
2023/08/15 00:21:50;;;;;;;6.53;3.30;;;;;;;;;;5006571;28;20038;-86
2023/08/15 00:24:17;;;;;;;9.60;3.47;;;;;;;;;;5009319;28;20040;-85
2023/08/15 00:26:48;;;;;;;5.78;2.92;;;;;;;;;;5009557;28;20026;-84
2023/08/15 00:29:14;;;;;;;7.20;3.13;;;;;;;;;;5010715;28;20025;-87
2023/08/15 00:31:42;;;;;;;7.18;2.97;;;;;;;;;;5012378;28;20029;-85
2023/08/15 00:34:09;;;;;;;4.85;3.15;;;;;;;;;;5011245;28;20112;-85
2023/08/15 00:36:38;;;;;;;5.65;3.15;;;;;;;;;;5010378;28;20610;-86
2023/08/15 00:39:06;;;;;;;6.35;3.88;;;;;;;;;;5011553;28;20046;-84
2023/08/15 00:41:34;;;;;;;6.15;4.13;;;;;;;;;;5009741;28;20029;-84
2023/08/15 00:44:02;;;;;;;6.78;3.08;;;;;;;;;;5021202;28;20058;-87
2023/08/15 00:46:29;;;;;;;4.35;2.95;;;;;;;;;;5010417;28;20034;-84
2023/08/15 00:48:59;;;;;;;6.68;3.58;;;;;;;;;;5026258;28;20561;-83
2023/08/15 00:51:28;;;;;;;6.90;3.55;;;;;;;;;;5010208;28;20914;-85
2023/08/15 00:53:54;;;;;;;5.55;2.95;;;;;;;;;;5010686;28;20041;-87
2023/08/15 00:56:23;;;;;;;5.68;3.25;;;;;;;;;;5007965;28;20085;-83
2023/08/15 00:58:49;;;;;;;5.97;3.25;;;;;;;;;;5010188;28;20418;-87
2023/08/15 01:01:16;;;;;;;5.45;3.53;;;;;;;;;;5026417;28;20037;-85
2023/08/15 01:03:43;;;;;;;6.00;2.90;;;;;;;;;;5010962;28;20033;-88
2023/08/15 01:06:09;;;;;;;4.55;2.97;;;;;;;;;;5012735;28;20022;-85
2023/08/15 01:08:35;;;;;;;4.68;2.83;;;;;;;;;;5012298;28;20037;-84
2023/08/15 01:11:02;;;;;;;4.03;2.70;;;;;;;;;;5013384;28;20030;-85
2023/08/15 01:13:35;;;;;;;7.15;2.97;;;;;;;;;;5025982;28;20026;-86
2023/08/15 01:16:03;;;;;;;4.88;3.05;;;;;;;;;;5009019;28;20125;-88
2023/08/15 01:18:38;;;;;;;3.40;2.55;;;;;;;;;;5010095;28;20025;-82
2023/08/15 01:21:04;;;;;;;4.78;2.90;;;;;;;;;;5010066;28;20025;-85
2023/08/15 01:23:39;;;;;;;4.35;2.45;;;;;;;;;;5011031;28;20043;-81
2023/08/15 01:26:05;;;;;;;7.30;3.10;;;;;;;;;;5008477;28;20038;-86
2023/08/15 01:28:32;;;;;;;5.22;2.33;;;;;;;;;;5010390;28;20091;-86
2023/08/15 01:31:06;;;;;;;6.25;2.95;;;;;;;;;;5009778;28;20026;-82
2023/08/15 01:33:38;;;;;;;6.45;3.10;;;;;;;;;;5004729;28;20044;-82
2023/08/15 01:36:15;;;;;;;5.68;2.78;;;;;;;;;;5004953;28;20100;-85
2023/08/15 01:38:46;;;;;;;6.13;3.20;;;;;;;;;;5021387;28;20036;-87
2023/08/15 01:41:14;;;;;;;4.60;2.60;;;;;;;;;;5010859;28;20030;-83
2023/08/15 01:43:43;;;;;;;6.95;3.50;;;;;;;;;;5008049;28;20060;-85
2023/08/15 01:46:12;;;;;;;5.93;3.28;;;;;;;;;;5010614;28;20054;-84
2023/08/15 01:48:40;;;;;;;4.10;2.88;;;;;;;;;;5009117;28;20121;-85
2023/08/15 01:51:05;;;;;;;5.97;3.15;;;;;;;;;;5013574;28;20025;-86
2023/08/15 01:53:31;;;;;;;5.55;2.92;;;;;;;;;;5014692;28;20041;-81
2023/08/15 01:55:57;;;;;;;3.45;2.60;;;;;;;;;;5029420;28;20034;-86
2023/08/15 01:58:23;;;;;;;7.18;3.33;;;;;;;;;;5014848;28;20177;-86
2023/08/15 02:00:49;;;;;;;9.52;3.20;;;;;;;;;;5012879;28;20037;-85
2023/08/15 02:03:15;;;;;;;8.80;3.13;;;;;;;;;;5029397;28;20026;-87
2023/08/15 02:05:46;;;;;;;4.97;2.92;;;;;;;;;;5012231;28;20037;-85
2023/08/15 02:08:13;;;;;;;3.65;2.53;;;;;;;;;;5008420;28;20033;-86
2023/08/15 02:10:39;;;;;;;4.78;3.22;;;;;;;;;;5024931;28;20056;-84
2023/08/15 02:13:07;;;;;;;6.82;3.15;;;;;;;;;;5014077;28;20053;-83
2023/08/15 02:15:33;;;;;;;5.72;2.92;;;;;;;;;;5029801;28;20048;-86
2023/08/15 02:17:59;;;;;;;4.28;2.80;;;;;;;;;;5025231;28;20029;-83
2023/08/15 02:20:25;;;;;;;6.70;2.70;;;;;;;;;;5012769;28;20442;-85
2023/08/15 02:22:52;;;;;;;3.40;2.80;;;;;;;;;;5012620;28;20044;-83
2023/08/15 02:25:18;;;;;;;4.53;2.92;;;;;;;;;;5012417;28;20103;-83
2023/08/15 02:27:44;;;;;;;4.40;3.08;;;;;;;;;;5027387;28;20634;-87
2023/08/15 02:30:10;;;;;;;5.20;2.38;;;;;;;;;;5013276;28;20029;-86
2023/08/15 02:32:38;;;;;;;3.80;2.97;;;;;;;;;;5024056;28;20036;-82
2023/08/15 02:35:07;;;;;;;4.57;3.17;;;;;;;;;;5027770;28;20037;-87
2023/08/15 02:37:34;;;;;;;6.90;3.50;;;;;;;;;;5013476;28;20029;-83
2023/08/15 02:40:06;;;;;;;11.20;4.15;;;;;;;;;;5028993;28;20504;-84
2023/08/15 02:42:32;;;;;;;13.80;4.60;;;;;;;;;;5011759;28;20478;-86
2023/08/15 02:44:58;;;;;;;10.93;5.82;;;;;;;;;;5012712;28;20052;-85
2023/08/15 02:47:24;;;;;;;11.98;7.05;;;;;;;;;;5013518;28;20030;-87
2023/08/15 02:49:50;;;;;;;10.93;9.23;;;;;;;;;;5024949;28;20580;-85
2023/08/15 02:52:18;;;;;;;15.25;10.07;;;;;;;;;;5016730;28;20033;-83
2023/08/15 02:54:44;;;;;;;16.38;11.52;;;;;;;;;;5013426;28;20061;-86
2023/08/15 02:57:10;;;;;;;13.95;12.27;;;;;;;;;;5011886;28;20037;-86
2023/08/15 02:59:36;;;;;;;23.67;13.95;;;17.60;99.90;;;;;;5010689;28;20069;-87
2023/08/15 03:02:04;;;;;;;20.45;12.90;;;21.80;99.90;;;;;;5012908;28;20042;-87
2023/08/15 03:04:30;;;;;;;20.35;12.57;;;21.40;99.90;;;;;;5012804;28;20030;-87
2023/08/15 03:06:56;;;;;;;14.30;11.45;;;21.30;99.90;;;;;;5011879;28;20040;-83
2023/08/15 03:09:21;;;;;;;13.40;10.77;;;21.20;99.90;;;;;;5011965;28;20048;-86
2023/08/15 03:11:47;;;;;;;15.45;11.13;;;21.00;99.90;;;;;;5027706;28;20056;-83
2023/08/15 03:14:12;;;;;;;30.13;13.65;;;20.90;99.90;;;;;;5028624;28;20140;-87
2023/08/15 03:16:40;;;;;;;18.73;12.05;;;20.80;99.90;;;;;;5013090;28;20035;-83
2023/08/15 03:19:06;;;;;;;29.23;10.90;;;;;;;;;;5011032;28;20052;-87
2023/08/15 03:21:32;;;;;;;24.08;13.18;;;;;;;;;;5010488;28;20038;-86
2023/08/15 03:23:58;;;;;;;30.95;14.10;;;;;;;;;;5027656;28;20048;-89
2023/08/15 03:26:28;;;;;;;39.35;17.33;;;;;;;;;;5013329;28;20029;-87
2023/08/15 03:28:57;;;;;;;26.17;15.30;;;;;;;;;;5010376;28;20041;-85
2023/08/15 03:31:23;;;;;;;29.42;17.77;;;;;;;;;;5012286;28;20045;-88
2023/08/15 03:33:49;;;;;;;48.85;22.33;;;;;;;;;;5011993;28;20030;-84
2023/08/15 03:36:17;;;;;;;32.70;21.08;;;;;;;;;;5011793;28;20045;-83
2023/08/15 03:38:46;;;;;;;48.80;20.92;;;;;;;;;;5011558;28;20034;-88
2023/08/15 03:41:12;;;;;;;44.70;20.83;;;;;;;;;;5006616;28;20434;-83
2023/08/15 03:43:38;;;;;;;36.08;20.58;;;;;;;;;;5027254;28;20119;-89
2023/08/15 03:46:07;;;;;;;32.92;19.98;;;;;;;;;;5026360;28;20037;-86
2023/08/15 03:48:33;;;;;;;40.72;22.20;;;;;;;;;;5011167;28;20065;-87
2023/08/15 03:50:59;;;;;;;38.10;20.05;;;;;;;;;;5006542;28;21513;-85
2023/08/15 03:53:26;;;;;;;33.83;19.05;;;;;;;;;;5026728;28;20109;-87
2023/08/15 03:55:53;;;;;;;29.33;18.05;;;;;;;;;;5009802;28;20092;-83
2023/08/15 03:58:19;;;;;;;26.98;16.77;;;;;;;;;;5010912;28;20450;-85
2023/08/15 04:00:46;;;;;;;36.42;19.02;;;;;;;;;;5012142;28;20103;-90
2023/08/15 04:03:12;;;;;;;33.45;16.73;;;;;;;;;;5006532;28;21579;-89
2023/08/15 04:05:38;;;;;;;36.92;18.20;;;;;;;;;;5027511;28;20051;-89
2023/08/15 04:08:04;;;;;;;36.08;18.05;;;;;;;;;;5006113;28;20450;-84
2023/08/15 04:10:30;;;;;;;36.78;18.90;;;;;;;;;;5010502;28;20030;-86
2023/08/15 04:12:56;;;;;;;31.00;18.98;;;;;;;;;;5010943;28;20022;-86
2023/08/15 04:15:22;;;;;;;52.45;21.50;;;;;;;;;;5011731;28;20091;-84
2023/08/15 04:17:48;;;;;;;54.88;24.08;;;;;;;;;;5027282;28;20038;-89
2023/08/15 04:20:14;;;;;;;49.22;21.15;;;;;;;;;;5011793;28;20030;-87
2023/08/15 04:22:43;;;;;;;34.97;18.10;;;;;;;;;;5010668;28;20112;-82
2023/08/15 04:25:09;;;;;;;42.20;21.05;;;;;;;;;;5010644;28;20036;-87
2023/08/15 04:27:38;;;;;;;35.28;19.50;;;;;;;;;;5011104;28;20021;-85
2023/08/15 04:30:05;;;;;;;41.72;19.02;;;;;;;;;;5011493;28;20943;-85
2023/08/15 04:32:31;;;;;;;52.63;20.38;;;;;;;;;;5010668;28;20406;-89
2023/08/15 04:34:57;;;;;;;52.80;22.30;;;;;;;;;;5011157;28;20033;-85
2023/08/15 04:37:23;;;;;;;43.80;20.02;;;;;;;;;;5014579;28;20037;-85
2023/08/15 04:39:49;;;;;;;76.97;25.10;;;;;;;;;;5012356;28;20036;-82
2023/08/15 04:42:15;;;;;;;49.85;21.77;;;;;;;;;;5006925;28;20124;-83
2023/08/15 04:44:43;;;;;;;42.20;20.55;;;;;;;;;;5010517;28;20034;-86
2023/08/15 04:47:09;;;;;;;60.97;23.00;;;;;;;;;;5010188;28;20105;-84
2023/08/15 04:49:35;;;;;;;61.00;22.38;;;20.70;99.90;;;;;;5010777;28;20029;-84
2023/08/15 04:52:01;;;;;;;64.53;23.70;;;;;;;;;;5011204;28;20091;-87
2023/08/15 04:54:27;;;;;;;59.45;22.63;;;;;;;;;;5010009;28;20043;-85
2023/08/15 04:56:53;;;;;;;49.10;20.98;;;;;;;;;;5026601;28;20029;-84
2023/08/15 04:59:19;;;;;;;43.60;20.40;;;;;;;;;;5011830;28;20033;-87
2023/08/15 05:01:46;;;;;;;38.85;20.20;;;;;;;;;;5011344;28;20115;-83
2023/08/15 05:04:12;;;;;;;56.70;22.50;;;;;;;;;;5009796;28;20502;-85
2023/08/15 05:06:40;;;;;;;51.20;23.38;;;;;;;;;;5012083;28;20029;-88
2023/08/15 05:09:06;;;;;;;69.40;25.35;;;;;;;;;;5008703;28;20025;-84
2023/08/15 05:11:32;;;;;;;48.05;23.08;;;;;;;;;;5026508;28;20037;-87
2023/08/15 05:14:06;;;;;;;34.35;20.75;;;;;;;;;;5011879;28;20445;-84
2023/08/15 05:16:32;;;;;;;36.22;20.77;;;;;;;;;;5009826;28;20042;-88
2023/08/15 05:18:58;;;;;;;47.17;22.08;;;;;;;;;;5026337;28;20435;-84
2023/08/15 05:21:24;;;;;;;41.08;21.48;;;;;;;;;;5010820;28;20069;-86
2023/08/15 05:23:50;;;;;;;55.42;24.23;;;;;;;;;;5009184;28;20034;-84
2023/08/15 05:26:18;;;;;;;53.92;25.13;;;;;;;;;;5010258;28;20447;-85
2023/08/15 05:28:44;;;;;;;44.30;23.27;;;;;;;;;;5025275;28;20044;-86
2023/08/15 05:31:10;;;;;;;40.33;21.80;;;;;;;;;;5011395;28;20097;-85
2023/08/15 05:33:36;;;;;;;34.05;18.95;;;;;;;;;;5009197;28;20055;-89
2023/08/15 05:36:02;;;;;;;34.33;17.65;;;;;;;;;;5009868;28;20111;-83
2023/08/15 05:38:28;;;;;;;26.55;15.13;;;;;;;;;;5009848;28;20103;-82
2023/08/15 05:40:54;;;;;;;26.25;13.55;;;;;;;;;;5025583;28;20037;-88
2023/08/15 05:43:20;;;;;;;29.08;13.77;;;;;;;;;;5009225;28;20040;-84
2023/08/15 05:45:48;;;;;;;17.75;11.95;;;;;;;;;;5025223;28;20112;-86
2023/08/15 05:48:14;;;;;;;19.90;11.38;;;;;;;;;;5005316;28;20022;-83
2023/08/15 05:50:43;;;;;;;18.40;10.05;;;;;;;;;;5009108;28;20113;-85
2023/08/15 05:53:09;;;;;;;23.15;10.60;;;;;;;;;;5009802;28;20057;-87
2023/08/15 05:55:38;;;;;;;16.48;9.73;;;;;;;;;;5010065;28;20116;-83
2023/08/15 05:58:04;;;;;;;13.85;9.25;;;;;;;;;;5024480;28;20060;-87
2023/08/15 06:00:31;;;;;;;14.50;8.43;;;;;;;;;;5008960;28;20033;-86
2023/08/15 06:02:57;;;;;;;13.23;8.02;;;;;;;;;;5024880;28;20045;-85
2023/08/15 06:05:23;;;;;;;9.57;6.10;;;;;;;;;;5008945;28;20046;-88
2023/08/15 06:07:51;;;;;;;8.18;5.88;;;;;;;;;;5025076;28;20026;-81
2023/08/15 06:10:17;;;;;;;13.23;7.70;;;;;;;;;;5009208;28;21031;-86
2023/08/15 06:12:46;;;;;;;16.60;8.25;;;;;;;;;;5010308;28;20061;-88
2023/08/15 06:15:12;;;;;;;11.32;8.38;;;;;;;;;;5008122;28;20066;-85
2023/08/15 06:17:38;;;;;;;19.27;9.98;;;;;;;;;;5010198;28;20421;-87
2023/08/15 06:20:05;;;;;;;17.90;12.35;;;;;;;;;;5011346;28;20038;-84
2023/08/15 06:22:31;;;;;;;23.40;12.20;;;;;;;;;;5011142;28;20052;-82
2023/08/15 06:24:57;;;;;;;23.08;13.02;;;;;;;;;;5013986;28;20525;-83
2023/08/15 06:27:23;;;;;;;19.55;11.98;;;;;;;;;;5009230;28;20087;-87
2023/08/15 06:29:54;;;;;;;16.23;11.30;;;;;;;;;;5011216;28;20045;-83
2023/08/15 06:32:25;;;;;;;18.23;12.63;;;;;;;;;;5009737;28;20025;-84
2023/08/15 06:34:51;;;;;;;19.52;13.00;;;;;;;;;;5013411;28;20656;-85
2023/08/15 06:37:20;;;;;;;23.67;13.73;;;;;;;;;;5012111;28;20112;-86
2023/08/15 06:39:46;;;;;;;29.77;15.90;;;;;;;;;;5024034;28;20033;-82
2023/08/15 06:42:12;;;;;;;25.50;15.63;;;;;;;;;;5012782;28;20030;-86
2023/08/15 06:44:38;;;;;;;28.25;16.85;;;;;;;;;;5012358;28;20030;-87
2023/08/15 06:47:05;;;;;;;23.15;15.75;;;;;;;;;;5030685;28;20048;-82
2023/08/15 06:49:31;;;;;;;22.63;13.98;;;;;;;;;;5007553;28;21796;-84
2023/08/15 06:51:56;;;;;;;24.17;13.43;;;;;;;;;;5024541;28;20043;-85
2023/08/15 06:54:22;;;;;;;20.88;13.25;;;;;;;;;;5013423;28;20117;-83
2023/08/15 06:56:48;;;;;;;18.42;12.48;;;;;;;;;;5028090;28;20120;-85
2023/08/15 06:59:17;;;;;;;15.57;11.68;;;;;;;;;;5014312;28;20163;-83
2023/08/15 07:01:44;;;;;;;15.32;10.75;;;;;;;;;;5010485;28;20044;-83
2023/08/15 07:04:10;;;;;;;16.65;10.63;;;;;;;;;;5024537;28;20180;-83
2023/08/15 07:06:37;;;;;;;12.25;9.43;;;;;;;;;;5013082;28;20081;-87
2023/08/15 07:09:06;;;;;;;10.70;7.72;;;;;;;;;;5013022;28;20029;-83
2023/08/15 07:11:32;;;;;;;9.65;8.50;;;;;;;;;;5011615;28;20034;-84
2023/08/15 07:13:58;;;;;;;10.50;8.55;;;;;;;;;;5012223;28;20148;-85
2023/08/15 07:16:24;;;;;;;11.90;8.10;;;;;;;;;;5012938;28;20054;-82
2023/08/15 07:18:52;;;;;;;12.50;8.65;;;;;;;;;;5012500;28;20538;-84
2023/08/15 07:21:18;;;;;;;14.48;7.30;;;;;;;;;;5027956;28;20450;-82
2023/08/15 07:23:45;;;;;;;8.93;7.63;;;;;;;;;;5012133;28;20045;-86
2023/08/15 07:26:13;;;;;;;10.50;7.20;;;;;;;;;;5011613;28;20018;-86
2023/08/15 07:28:39;;;;;;;11.38;6.93;;;;;;;;;;5012397;28;20021;-82
2023/08/15 07:31:05;;;;;;;9.88;6.88;;;;;;;;;;5023360;28;20022;-82
2023/08/15 07:33:31;;;;;;;8.15;5.72;;;;;;;;;;5010122;28;20494;-85
2023/08/15 07:35:57;;;;;;;8.63;6.68;;;;;;;;;;5023536;28;20466;-83
2023/08/15 07:38:23;;;;;;;8.93;5.35;;;;;;;;;;5011340;28;20096;-88
2023/08/15 07:40:50;;;;;;;7.28;5.57;;;;;;;;;;5011478;28;20025;-85
2023/08/15 07:43:16;;;;;;;7.88;5.43;;;;;;;;;;5011701;28;20030;-82
2023/08/15 07:45:42;;;;;;;7.82;5.47;;;;;;;;;;5011195;28;20123;-85
2023/08/15 07:48:07;;;;;;;13.02;6.18;;;;;;;;;;5012489;28;20026;-83
2023/08/15 07:50:33;;;;;;;10.52;6.22;;;;;;;;;;5010264;28;20056;-84
2023/08/15 07:53:00;;;;;;;11.68;6.18;;;;;;;;;;5012461;28;20044;-86
2023/08/15 07:55:27;;;;;;;8.95;6.13;;;;;;;;;;5012190;28;20025;-83
2023/08/15 07:57:53;;;;;;;13.60;6.55;;;;;;;;;;5023148;28;20037;-82
2023/08/15 08:00:19;;;;;;;15.70;8.13;;;;;;;;;;5027846;28;20038;-85
2023/08/15 08:02:48;;;;;;;14.27;6.97;;;;;;;;;;5026689;28;20133;-84
2023/08/15 08:05:16;;;;;;;15.23;7.45;;;;;;;;;;5010744;28;20083;-82
2023/08/15 08:07:42;;;;;;;18.48;8.10;;;;;;;;;;5011314;28;20045;-85
2023/08/15 08:10:09;;;;;;;14.02;7.43;;;;;;;;;;5010635;28;20083;-82
2023/08/15 08:12:35;;;;;;;14.30;7.30;;;;;;;;;;5027189;28;20053;-83
2023/08/15 08:15:01;;;;;;;12.85;8.13;;;;;;;;;;5027120;28;20037;-86
2023/08/15 08:17:27;;;;;;;12.38;8.27;;;;;;;;;;5023655;28;20055;-85
2023/08/15 08:19:54;;;;;;;14.25;8.43;;;;;;;;;;5014187;28;20033;-80
2023/08/15 08:22:20;;;;;;;12.05;7.15;;;;;;;;;;5026010;28;20044;-84
2023/08/15 08:24:46;;;;;;;11.75;7.30;;;;;;;;;;5022944;28;20038;-87
2023/08/15 08:27:14;;;;;;;12.48;7.07;;;;;;;;;;5009065;28;20040;-82
2023/08/15 08:29:40;;;;;;;14.45;6.22;;;;;;;;;;5010084;28;20053;-84
2023/08/15 08:32:09;;;;;;;8.50;5.70;;;;;;;;;;5012077;28;20053;-84
2023/08/15 08:34:35;;;;;;;8.18;5.55;;;;;;;;;;5011280;28;20077;-85
2023/08/15 08:37:03;;;;;;;12.27;6.20;;;;;;;;;;5026661;28;20039;-85
2023/08/15 08:39:29;;;;;;;10.73;5.53;;;;;;;;;;5026805;28;20034;-84
2023/08/15 08:41:55;;;;;;;11.85;5.32;;;;;;;;;;5024860;28;20033;-85
2023/08/15 08:44:23;;;;;;;11.48;4.82;;;;;;;;;;5009948;28;20473;-82
2023/08/15 08:46:49;;;;;;;8.73;5.35;;;;;;;;;;5025731;28;20033;-82
2023/08/15 08:49:16;;;;;;;14.90;5.50;;;;;;;;;;5010213;28;20034;-86
2023/08/15 08:51:44;;;;;;;8.48;4.75;;;;;;;;;;5025115;28;20029;-85
2023/08/15 08:54:10;;;;;;;7.18;4.40;;;;;;;;;;5010943;28;20033;-81
2023/08/15 08:56:38;;;;;;;5.68;4.40;;;;;;;;;;5007964;28;20045;-84
2023/08/15 08:59:10;;;;;;;7.57;4.43;;;;;;;;;;5010127;28;20130;-80
2023/08/15 09:01:37;;;;;;;7.95;4.95;;;;;;;;;;5010103;28;20103;-85
2023/08/15 09:04:03;;;;;;;9.77;4.53;;;;;;;;;;5021153;28;20176;-86
2023/08/15 09:06:29;;;;;;;9.35;4.95;;;;;;;;;;5025253;28;20494;-85
2023/08/15 09:08:57;;;;;;;12.07;4.60;;;;;;;;;;5009885;28;20446;-80
2023/08/15 09:11:23;;;;;;;7.63;4.70;;;;;;;;;;5024289;28;20021;-79
2023/08/15 09:13:53;;;;;;;8.80;4.43;;;;;;;;;;5009665;28;20044;-82
2023/08/15 09:16:19;;;;;;;6.38;3.92;;;;;;;;;;5009668;28;20645;-85
2023/08/15 09:18:47;;;;;;;11.10;4.65;;;;;;;;;;5025168;28;20030;-84
2023/08/15 09:21:14;;;;;;;10.93;4.47;;;;;;;;;;5010167;28;20037;-83
2023/08/15 09:23:43;;;;;;;6.97;3.70;;;;;;;;;;5008081;28;20120;-84
2023/08/15 09:26:12;;;;;;;5.90;3.63;;;;;;;;;;5010026;28;20044;-83
2023/08/15 09:28:39;;;;;;;6.68;3.30;;;;;;;;;;5008025;28;20037;-78
2023/08/15 09:31:05;;;;;;;7.68;4.07;;;;;;;;;;5024985;28;20056;-81
2023/08/15 09:33:31;;;;;;;13.88;4.07;;;;;;;;;;5024055;28;20145;-84
2023/08/15 09:35:58;;;;;;;11.15;4.15;;;;;;;;;;5025303;28;20527;-82
2023/08/15 09:38:24;;;;;;;9.82;4.00;;;;;;;;;;5020897;28;20080;-82
2023/08/15 09:40:50;;;;;;;8.00;3.92;;;;;;;;;;5008744;28;20033;-81
2023/08/15 09:43:16;;;;;;;9.02;4.28;;;;;;;;;;5008839;28;20042;-84
2023/08/15 09:45:42;;;;;;;8.07;4.03;;;;;;;;;;5009068;28;20042;-82
2023/08/15 09:48:09;;;;;;;7.88;3.53;;;;;;;;;;5009450;28;20030;-85
2023/08/15 09:50:37;;;;;;;9.32;4.13;;;;;;;;;;5009894;28;20069;-84
2023/08/15 09:53:05;;;;;;;9.10;4.20;;;;;;;;;;5009364;28;20086;-81
2023/08/15 09:55:33;;;;;;;12.32;4.20;;;;;;;;;;5025368;28;20064;-81
2023/08/15 09:58:02;;;;;;;6.75;3.78;;;;;;;;;;5009192;28;20137;-82
2023/08/15 10:00:30;;;;;;;8.27;3.47;;;;;;;;;;5007848;28;20033;-82
2023/08/15 10:03:15;;;;;;;9.40;4.43;;;;;;;;;;5008323;28;20048;-84
2023/08/15 10:05:43;;;;;;;8.85;3.85;;;;;;;;;;5008104;28;20769;-85
2023/08/15 10:08:10;;;;;;;11.23;3.10;;;;;;;;;;5011620;28;20358;-84
2023/08/15 10:10:38;;;;;;;6.45;2.70;;;;;;;;;;5007851;28;20069;-85
2023/08/15 10:13:05;;;;;;;6.60;3.10;;;;;;;;;;5012394;28;20037;-80
2023/08/15 10:15:33;;;;;;;8.65;3.03;;;;;;;;;;5012606;28;20852;-80
2023/08/15 10:17:59;;;;;;;6.25;2.03;;;;;;;;;;5012478;28;20038;-80
2023/08/15 10:20:25;;;;;;;4.75;2.13;;;;;;;;;;5011982;28;20096;-82
2023/08/15 10:22:55;;;;;;;7.05;2.45;;;;;;;;;;5028382;28;20156;-85
2023/08/15 10:25:24;;;;;;;4.38;1.77;;;;;;;;;;5011204;28;20069;-85
2023/08/15 10:27:53;;;;;;;5.90;2.45;;;;;;;;;;5013433;28;20057;-77
2023/08/15 10:30:40;;;;;;;6.85;3.20;;;;;;;;;;5012190;28;20033;-79
2023/08/15 10:33:13;;;;;;;7.38;2.15;;;;;;;;;;5010878;28;20025;-80
2023/08/15 10:35:43;;;;;;;6.22;2.65;;;;;;;;;;5006544;28;20056;-81
2023/08/15 10:38:17;;;;;;;5.63;2.28;;;;;;;;;;5016586;28;20029;-81
2023/08/15 10:40:44;;;;;;;7.03;2.63;;;;;;;;;;5015692;28;20087;-81
2023/08/15 10:43:11;;;;;;;7.30;1.83;;;;;;;;;;5024854;28;20033;-82
2023/08/15 10:45:37;;;;;;;7.00;2.45;;;;;;;;;;5012502;28;20091;-82
2023/08/15 10:48:03;;;;;;;5.88;2.50;;;;;;;;;;5022032;28;20033;-81
2023/08/15 10:50:30;;;;;;;4.85;2.20;;;;;;;;;;5010454;28;20038;-80
2023/08/15 10:53:02;;;;;;;6.22;2.63;;;;;;;;;;5005955;28;20541;-80
2023/08/15 10:55:29;;;;;;;6.00;2.25;;;;;;;;;;5010543;28;20056;-79
2023/08/15 10:57:58;;;;;;;5.40;2.72;;;;;;;;;;5022613;28;20802;-81
2023/08/15 11:00:24;;;;;;;6.30;2.20;;;;;;;;;;5012264;28;20826;-80
2023/08/15 11:02:51;;;;;;;4.57;1.85;;;;;;;;;;5011880;28;20033;-81
2023/08/15 11:05:21;;;;;;;3.15;1.75;;;;;;;;;;5005820;28;20029;-81
2023/08/15 11:07:47;;;;;;;6.25;2.40;;;;;;;;;;5011984;28;20030;-82
2023/08/15 11:10:13;;;;;;;11.90;2.55;;;;;;;;;;5021649;28;20036;-80
2023/08/15 11:12:48;;;;;;;4.88;2.20;;;;;;;;;;5011876;28;20092;-79
2023/08/15 11:15:14;;;;;;;8.88;2.40;;;;;;;;;;5005974;28;20045;-81
2023/08/15 11:17:40;;;;;;;6.88;2.95;;;;;;;;;;5010630;28;20932;-77
2023/08/15 11:20:06;;;;;;;5.57;2.28;;;;;;;;;;5010865;28;20152;-80
2023/08/15 11:22:32;;;;;;;5.15;2.53;;;;;;;;;;5010061;28;20034;-80
2023/08/15 11:24:58;;;;;;;5.55;2.50;;;;;;;;;;5011931;28;20040;-78
2023/08/15 11:27:24;;;;;;;4.20;2.13;;;;;;;;;;5010428;28;20045;-78
2023/08/15 11:29:57;;;;;;;5.30;2.15;;;;;;;;;;5027073;28;20028;-82
2023/08/15 11:32:24;;;;;;;6.57;2.35;;;;;;;;;;5025827;28;20021;-81
2023/08/15 11:34:50;;;;;;;10.18;2.90;;;;;;;;;;5010778;28;20045;-80
2023/08/15 11:37:18;;;;;;;5.72;2.85;;;;;;;;;;5011084;28;20030;-82
2023/08/15 11:39:54;;;;;;;6.80;2.83;;;;;;;;;;5010642;28;20030;-79
2023/08/15 11:42:20;;;;;;;9.07;2.75;;;;;;;;;;5010453;28;20124;-80
2023/08/15 11:44:46;;;;;;;5.93;3.08;;;;;;;;;;5009312;28;20132;-80
2023/08/15 11:47:15;;;;;;;6.53;2.83;;;;;;;;;;5026098;28;20125;-82
2023/08/15 11:49:46;;;;;;;4.03;2.72;;;;;;;;;;5010403;28;20056;-80
2023/08/15 11:52:12;;;;;;;6.65;2.85;;;;;;;;;;5009736;28;20069;-80
2023/08/15 11:54:46;;;;;;;4.57;2.78;;;;;;;;;;5021488;28;20151;-80
2023/08/15 11:57:12;;;;;;;3.08;2.00;;;;;;;;;;5025869;28;20029;-81
2023/08/15 11:59:38;;;;;;;4.80;2.50;;;;;;;;;;5008988;28;20034;-81
2023/08/15 12:02:04;;;;;;;8.38;2.75;;;;;;;;;;5021287;28;20034;-82
2023/08/15 12:04:36;;;;;;;6.60;2.65;;;;;;;;;;5010775;28;20348;-80
2023/08/15 12:07:04;;;;;;;7.97;3.20;;;;;;;;;;5025745;28;20038;-82
2023/08/15 12:09:31;;;;;;;6.03;2.45;;;;;;;;;;5024932;28;20037;-80
2023/08/15 12:11:57;;;;;;;5.28;2.72;;;;;;;;;;5009633;28;20133;-81
2023/08/15 12:14:23;;;;;;;8.95;2.78;;;;;;;;;;5025839;28;20743;-81
2023/08/15 12:16:49;;;;;;;9.10;3.50;;;;;;;;;;5010332;28;20430;-79
2023/08/15 12:19:17;;;;;;;5.55;2.45;;;;;;;;;;5009681;28;20110;-80
2023/08/15 12:21:43;;;;;;;5.60;2.72;;;;;;;;;;5019892;28;20037;-79
2023/08/15 12:24:09;;;;;;;4.32;2.83;;;;;;;;;;5009743;28;20463;-79
2023/08/15 12:26:35;;;;;;;6.78;2.90;;;;;;;;;;5024622;28;20025;-81
2023/08/15 12:29:01;;;;;;;5.75;2.90;;;;;;;;;;5010193;28;20030;-80
2023/08/15 12:31:27;;;;;;;6.78;3.00;;;;;;;;;;5023355;28;20026;-82
2023/08/15 12:33:53;;;;;;;4.68;2.50;;;;;;;;;;5026290;28;20040;-81
2023/08/15 12:36:19;;;;;;;8.10;3.03;;;;;;;;;;5008050;28;20033;-79
2023/08/15 12:38:45;;;;;;;6.90;3.17;;;;;;;;;;5009757;28;20034;-82
2023/08/15 12:41:13;;;;;;;6.82;2.53;;;;;;;;;;5008322;28;20228;-80
2023/08/15 12:43:41;;;;;;;6.15;3.58;;;;;;;;;;5009267;28;20044;-81
2023/08/15 12:46:07;;;;;;;5.57;2.65;;;;;;;;;;5009440;28;20033;-80
2023/08/15 12:48:36;;;;;;;6.28;2.75;;;;;;;;;;5008834;28;20049;-82
2023/08/15 12:51:02;;;;;;;3.42;2.53;;;;;;;;;;5009049;28;20034;-80
2023/08/15 12:53:28;;;;;;;4.72;2.85;;;;;;;;;;5012862;28;20049;-78
2023/08/15 12:55:54;;;;;;;4.13;2.33;;;;;;;;;;5009863;28;20563;-82
2023/08/15 12:58:20;;;;;;;6.43;2.90;;;;;;;;;;5010711;28;20026;-80
2023/08/15 13:00:48;;;;;;;5.82;3.20;;;;;;;;;;5013768;28;20056;-81
2023/08/15 13:03:14;;;;;;;7.07;3.08;;;;;;;;;;5023951;28;20026;-78
2023/08/15 13:05:40;;;;;;;4.28;2.67;;;;;;;;;;5025156;28;20042;-81
2023/08/15 13:08:06;;;;;;;8.70;3.10;;;;;;;;;;5023889;28;20037;-81
2023/08/15 13:10:32;;;;;;;5.50;3.10;;;;;;;;;;5008840;28;20041;-80
2023/08/15 13:12:58;;;;;;;7.00;2.92;;;;;;;;;;5008713;28;21681;-81
2023/08/15 13:15:24;;;;;;;5.03;2.80;;;;;;;;;;5008748;28;20064;-78
2023/08/15 13:17:50;;;;;;;6.97;2.72;;;;;;;;;;5019476;28;20037;-82
2023/08/15 13:20:16;;;;;;;4.45;2.58;;;;;;;;;;5019875;28;20862;-79
2023/08/15 13:22:42;;;;;;;12.95;2.97;;;;;;;;;;5024131;28;20476;-80
2023/08/15 13:25:08;;;;;;;3.80;2.20;;;;;;;;;;5010107;28;20034;-80
2023/08/15 13:27:36;;;;;;;4.55;2.47;;;;;;;;;;5009601;28;20037;-82
2023/08/15 13:30:02;;;;;;;6.55;3.10;;;;;;;;;;5008522;28;20033;-78
2023/08/15 13:32:30;;;;;;;4.72;2.70;;;;;;;;;;5019646;28;20083;-82
2023/08/15 13:34:59;;;;;;;5.82;2.70;;;;;;;;;;5019643;28;20057;-79
2023/08/15 13:37:25;;;;;;;9.63;3.08;;;;;;;;;;5008557;28;20112;-78
2023/08/15 13:39:53;;;;;;;7.82;3.85;;;;;;;;;;5009243;28;20034;-80
2023/08/15 13:42:19;;;;;;;4.15;2.75;;;;;;;;;;5009210;28;20505;-79
2023/08/15 13:44:45;;;;;;;7.15;2.92;;;;;;;;;;5013260;28;20144;-80
2023/08/15 13:47:12;;;;;;;10.77;3.88;;;;;;;;;;5013281;28;20037;-82
2023/08/15 13:49:38;;;;;;;5.95;3.67;;;;;;;;;;5012377;28;20021;-82
2023/08/15 13:52:04;;;;;;;5.18;2.75;;;;;;;;;;5012847;28;20048;-80
2023/08/15 13:54:30;;;;;;;7.50;2.88;;;;;;;;;;5012319;28;20124;-81
2023/08/15 13:56:56;;;;;;;6.82;3.70;;;;;;;;;;5023942;28;20458;-82
2023/08/15 13:59:22;;;;;;;5.80;3.20;;;;;;;;;;5011175;28;20481;-79
2023/08/15 14:01:48;;;;;;;5.18;3.70;;;;;;;;;;5012122;28;20183;-79
2023/08/15 14:04:15;;;;;;;7.78;2.83;;;;;;;;;;5027721;28;20026;-81
2023/08/15 14:06:41;;;;;;;4.65;2.78;;;;;;;;;;5011028;28;20439;-80
2023/08/15 14:09:09;;;;;;;6.20;2.88;;;;;;;;;;5027979;28;20171;-82
2023/08/15 14:11:35;;;;;;;3.13;2.40;;;;;;;;;;5011407;28;20036;-77
2023/08/15 14:14:01;;;;;;;6.28;3.13;;;;;;;;;;5006929;28;20026;-79
2023/08/15 14:16:27;;;;;;;4.88;3.08;;;;;;;;;;5023149;28;20413;-82
2023/08/15 14:18:53;;;;;;;6.22;3.47;;;;;;;;;;5027954;28;20025;-80
2023/08/15 14:21:21;;;;;;;7.65;4.53;;;;;;;;;;5027837;28;20087;-82
2023/08/15 14:23:47;;;;;;;4.65;3.10;;;;;;;;;;5022850;28;20477;-78
2023/08/15 14:26:13;;;;;;;10.07;3.80;;;;;;;;;;5027355;28;20137;-82
2023/08/15 14:28:39;;;;;;;5.30;3.38;;;;;;;;;;5011874;28;20105;-81
2023/08/15 14:31:06;;;;;;;6.63;2.72;;;;;;;;;;5011783;28;20026;-79